createdAt,value
2023-04-12T00:02:35.642Z,3.10
2023-04-12T00:05:09.649Z,3.00
2023-04-12T00:07:42.744Z,3.00
2023-04-12T00:10:14.647Z,3.70
2023-04-12T00:12:46.880Z,3.33
2023-04-12T00:15:18.734Z,3.13
2023-04-12T00:17:50.632Z,3.43
2023-04-12T00:20:22.430Z,3.60
2023-04-12T00:22:54.832Z,3.63
2023-04-12T00:25:26.616Z,3.97
2023-04-12T00:27:58.541Z,4.13
2023-04-12T00:30:30.237Z,3.40
2023-04-12T00:33:02.074Z,4.50
2023-04-12T00:35:33.928Z,3.93
2023-04-12T00:38:10.369Z,3.93
2023-04-12T00:40:43.242Z,3.30
2023-04-12T00:43:18.716Z,3.77
2023-04-12T00:45:51.148Z,4.40
2023-04-12T00:48:24.205Z,3.83
2023-04-12T00:50:57.518Z,3.90
2023-04-12T00:53:29.424Z,5.10
2023-04-12T00:56:01.757Z,4.17
2023-04-12T00:58:33.665Z,3.50
2023-04-12T01:01:05.792Z,3.97
2023-04-12T01:03:43.336Z,4.10
2023-04-12T01:06:29.863Z,3.87
2023-04-12T01:09:23.410Z,4.17
2023-04-12T01:12:16.595Z,4.97
2023-04-12T01:15:12.840Z,4.30
2023-04-12T01:18:08.137Z,4.20
2023-04-12T01:20:44.861Z,3.50
2023-04-12T01:23:35.362Z,4.77
2023-04-12T01:26:33.079Z,3.87
2023-04-12T01:29:10.950Z,3.83
2023-04-12T01:31:52.802Z,5.83
2023-04-12T01:34:28.255Z,3.77
2023-04-12T01:37:02.953Z,4.50
2023-04-12T01:39:35.511Z,4.23
2023-04-12T01:42:07.225Z,3.87
2023-04-12T01:44:38.954Z,4.37
2023-04-12T01:47:10.879Z,4.23
2023-04-12T01:50:10.487Z,3.80
2023-04-12T01:53:06.250Z,4.37
2023-04-12T01:55:42.277Z,4.67
2023-04-12T01:58:19.498Z,4.20
2023-04-12T02:00:52.805Z,4.00
2023-04-12T02:03:25.037Z,3.30
2023-04-12T02:05:59.364Z,4.23
2023-04-12T02:08:31.061Z,3.60
2023-04-12T02:11:09.329Z,3.60
2023-04-12T02:13:41.280Z,3.50
2023-04-12T02:16:14.341Z,4.30
2023-04-12T02:18:47.640Z,4.13
2023-04-12T02:21:19.448Z,4.20
2023-04-12T02:23:51.212Z,3.72
2023-04-12T02:26:23.460Z,4.10
2023-04-12T02:28:55.405Z,3.73
2023-04-12T02:31:27.876Z,4.00
2023-04-12T02:33:59.648Z,3.83
2023-04-12T02:36:31.701Z,4.30
2023-04-12T02:39:04.072Z,3.90
2023-04-12T02:41:36.515Z,4.03
2023-04-12T02:44:08.366Z,4.43
2023-04-12T02:46:40.182Z,4.37
2023-04-12T02:49:12.029Z,4.37
2023-04-12T02:51:44.265Z,3.93
2023-04-12T02:54:16.933Z,4.17
2023-04-12T02:56:48.630Z,4.23
2023-04-12T02:59:20.591Z,4.43
2023-04-12T03:01:52.617Z,3.70
2023-04-12T03:04:30.023Z,5.00
2023-04-12T03:07:01.905Z,4.53
2023-04-12T03:09:34.776Z,4.63
2023-04-12T03:12:06.682Z,4.90
2023-04-12T03:14:38.415Z,4.17
2023-04-12T03:17:10.986Z,4.83
2023-04-12T03:19:42.828Z,4.60
2023-04-12T03:22:14.699Z,3.93
2023-04-12T03:24:46.992Z,4.40
2023-04-12T03:27:18.709Z,4.93
2023-04-12T03:29:52.225Z,5.47
2023-04-12T03:32:24.707Z,4.13
2023-04-12T03:34:57.901Z,5.13
2023-04-12T03:37:29.709Z,4.80
2023-04-12T03:40:01.599Z,4.20
2023-04-12T03:42:33.978Z,4.97
2023-04-12T03:45:06.366Z,4.93
2023-04-12T03:47:38.265Z,4.53
2023-04-12T03:50:12.404Z,4.13
2023-04-12T03:52:44.544Z,4.40
2023-04-12T03:55:18.202Z,3.90
2023-04-12T03:57:50.107Z,4.80
2023-04-12T04:00:22.100Z,4.80
2023-04-12T04:02:53.983Z,5.60
2023-04-12T04:05:26.043Z,4.43
2023-04-12T04:08:02.245Z,4.80
2023-04-12T04:10:34.604Z,4.57
2023-04-12T04:13:06.386Z,4.33
2023-04-12T04:15:38.244Z,4.43
2023-04-12T04:18:10.268Z,4.30
2023-04-12T04:20:43.023Z,5.23
2023-04-12T04:23:15.360Z,4.10
2023-04-12T04:25:47.114Z,4.43
2023-04-12T04:28:18.959Z,4.77
2023-04-12T04:30:51.594Z,4.47
2023-04-12T04:33:23.417Z,4.20
2023-04-12T04:35:57.006Z,4.13
2023-04-12T04:38:28.799Z,3.47
2023-04-12T04:41:04.532Z,4.17
2023-04-12T04:43:39.974Z,4.07
2023-04-12T04:46:11.812Z,3.90
2023-04-12T04:48:43.597Z,3.73
2023-04-12T04:51:15.597Z,4.50
2023-04-12T04:53:47.377Z,4.03
2023-04-12T04:56:19.147Z,4.60
2023-04-12T04:58:51.006Z,4.13
2023-04-12T05:01:25.978Z,3.90
2023-04-12T05:03:57.863Z,4.47
2023-04-12T05:06:30.879Z,5.07
2023-04-12T05:09:02.893Z,4.30
2023-04-12T05:11:34.852Z,3.87
2023-04-12T05:14:06.672Z,3.50
2023-04-12T05:16:38.650Z,4.30
2023-04-12T05:19:11.258Z,4.97
2023-04-12T05:21:43.032Z,6.10
2023-04-12T05:24:14.811Z,4.57
2023-04-12T05:26:47.254Z,6.13
2023-04-12T05:29:19.312Z,5.40
2023-04-12T05:31:51.115Z,4.63
2023-04-12T05:34:22.960Z,5.20
2023-04-12T05:36:54.743Z,7.97
2023-04-12T05:39:27.258Z,13.77
2023-04-12T05:41:58.983Z,7.17
2023-04-12T05:44:30.817Z,4.30
2023-04-12T05:47:03.855Z,4.40
2023-04-12T05:49:35.540Z,4.33
2023-04-12T05:52:07.426Z,4.07
2023-04-12T05:54:39.186Z,4.70
2023-04-12T05:57:12.369Z,4.77
2023-04-12T05:59:44.124Z,4.20
2023-04-12T06:02:16.540Z,4.17
2023-04-12T06:04:50.910Z,4.10
2023-04-12T06:07:23.575Z,4.47
2023-04-12T06:09:55.276Z,3.80
2023-04-12T06:12:27.122Z,4.20
2023-04-12T06:14:58.896Z,3.57
2023-04-12T06:17:30.990Z,4.00
2023-04-12T06:20:06.115Z,3.90
2023-04-12T06:22:38.434Z,3.63
2023-04-12T06:25:10.296Z,5.10
2023-04-12T06:27:42.260Z,3.70
2023-04-12T06:30:14.150Z,3.67
2023-04-12T06:32:46.154Z,3.57
2023-04-12T06:35:18.278Z,3.60
2023-04-12T06:37:50.205Z,3.97
2023-04-12T06:40:21.932Z,4.00
2023-04-12T06:42:53.607Z,4.33
2023-04-12T06:45:25.343Z,5.07
2023-04-12T06:47:57.200Z,4.40
2023-04-12T06:50:29.019Z,4.97
2023-04-12T06:53:00.704Z,4.70
2023-04-12T06:55:32.533Z,4.20
2023-04-12T06:58:04.247Z,6.07
2023-04-12T07:00:36.091Z,5.23
2023-04-12T07:03:09.293Z,5.27
2023-04-12T07:05:41.406Z,4.50
2023-04-12T07:08:13.071Z,4.33
2023-04-12T07:10:44.826Z,4.10
2023-04-12T07:13:16.505Z,3.97
2023-04-12T07:15:52.150Z,6.80
2023-04-12T07:18:24.276Z,4.60
2023-04-12T07:20:57.254Z,5.47
2023-04-12T07:23:29.041Z,5.23
2023-04-12T07:26:02.352Z,4.50
2023-04-12T07:28:35.857Z,6.00
2023-04-12T07:31:07.945Z,5.50
2023-04-12T07:33:42.785Z,6.67
2023-04-12T07:36:16.616Z,4.23
2023-04-12T07:38:49.257Z,5.60
2023-04-12T07:41:22.762Z,5.10
2023-04-12T07:43:54.750Z,5.33
2023-04-12T07:46:26.610Z,5.07
2023-04-12T07:48:58.705Z,4.60
2023-04-12T07:51:31.096Z,4.30
2023-04-12T07:54:04.326Z,4.10
2023-04-12T07:56:36.512Z,3.80
2023-04-12T07:59:08.359Z,3.87
2023-04-12T08:01:40.216Z,4.20
2023-04-12T08:04:12.161Z,3.93
2023-04-12T08:06:44.064Z,4.30
2023-04-12T08:09:15.955Z,4.30
2023-04-12T08:11:47.804Z,5.20
2023-04-12T08:14:20.042Z,3.87
2023-04-12T08:16:51.906Z,4.40
2023-04-12T08:19:23.898Z,4.80
2023-04-12T08:21:55.712Z,4.17
2023-04-12T08:24:27.426Z,3.30
2023-04-12T08:26:59.674Z,3.50
2023-04-12T08:29:31.559Z,4.07
2023-04-12T08:32:05.177Z,3.43
2023-04-12T08:34:37.623Z,5.67
2023-04-12T08:37:09.413Z,3.10
2023-04-12T08:39:41.244Z,4.30
2023-04-12T08:42:15.749Z,4.50
2023-04-12T08:44:47.557Z,3.73
2023-04-12T08:47:21.028Z,3.17
2023-04-12T08:49:52.978Z,3.30
2023-04-12T08:52:24.909Z,3.27
2023-04-12T08:54:56.892Z,3.73
2023-04-12T08:57:31.307Z,4.60
2023-04-12T09:00:04.722Z,3.60
2023-04-12T09:02:38.381Z,3.70
2023-04-12T09:05:10.693Z,3.88
2023-04-12T09:07:42.873Z,3.60
2023-04-12T09:10:34.132Z,3.73
2023-04-12T09:13:06.641Z,3.43
2023-04-12T09:15:49.049Z,3.47
2023-04-12T09:18:20.761Z,4.03
2023-04-12T09:21:08.113Z,3.47
2023-04-12T09:23:39.819Z,3.97
2023-04-12T09:26:28.556Z,2.97
2023-04-12T09:29:01.017Z,3.90
2023-04-12T09:31:32.985Z,4.00
2023-04-12T09:34:08.940Z,3.80
2023-04-12T09:36:41.319Z,3.50
2023-04-12T09:39:13.142Z,3.80
2023-04-12T09:41:44.965Z,3.60
2023-04-12T09:44:32.683Z,3.30
2023-04-12T09:47:05.729Z,4.07
2023-04-12T09:49:42.370Z,3.57
2023-04-12T09:52:14.880Z,2.93
2023-04-12T09:54:50.736Z,3.67
2023-04-12T09:57:24.329Z,3.90
2023-04-12T10:00:00.350Z,3.63
2023-04-12T10:02:32.604Z,2.80
2023-04-12T10:05:06.137Z,3.53
2023-04-12T10:07:40.855Z,4.67
2023-04-12T10:10:14.737Z,4.30
2023-04-12T10:12:48.818Z,3.43
2023-04-12T10:15:23.679Z,3.67
2023-04-12T10:17:57.455Z,3.60
2023-04-12T10:20:29.921Z,3.23
2023-04-12T10:23:01.766Z,2.97
2023-04-12T10:25:33.699Z,3.63
2023-04-12T10:28:17.196Z,3.90
2023-04-12T10:30:51.939Z,3.30
2023-04-12T10:33:28.143Z,3.57
2023-04-12T10:36:03.933Z,3.20
2023-04-12T10:39:10.131Z,2.73
2023-04-12T10:42:17.011Z,2.67
2023-04-12T10:44:50.269Z,3.00
2023-04-12T10:47:46.686Z,2.77
2023-04-12T10:50:32.848Z,3.23
2023-04-12T10:53:12.689Z,3.37
2023-04-12T10:55:45.621Z,3.60
2023-04-12T10:58:48.865Z,2.63
2023-04-12T11:01:22.163Z,2.10
2023-04-12T11:04:17.989Z,2.40
2023-04-12T11:06:59.084Z,2.17
2023-04-12T11:09:34.132Z,5.07
2023-04-12T11:12:07.378Z,2.30
2023-04-12T11:14:49.198Z,2.17
2023-04-12T11:17:22.183Z,2.00
2023-04-12T11:19:57.586Z,2.10
2023-04-12T11:22:33.408Z,2.50
2023-04-12T11:25:05.675Z,2.37
2023-04-12T11:27:38.089Z,1.90
2023-04-12T11:30:10.335Z,1.77
2023-04-12T11:32:45.518Z,2.23
2023-04-12T11:35:20.342Z,2.33
2023-04-12T11:37:52.273Z,2.27
2023-04-12T11:40:24.176Z,1.70
2023-04-12T11:42:57.641Z,2.43
2023-04-12T11:45:32.025Z,2.10
2023-04-12T11:48:09.015Z,2.03
2023-04-12T11:50:41.651Z,1.90
2023-04-12T11:53:13.862Z,1.90
2023-04-12T11:55:49.702Z,1.90
2023-04-12T11:58:27.876Z,1.30
2023-04-12T12:01:00.777Z,1.63
2023-04-12T12:03:32.847Z,2.00
2023-04-12T12:06:06.096Z,2.13
2023-04-12T12:08:38.267Z,1.50
2023-04-12T12:11:10.454Z,1.77
2023-04-12T12:13:51.990Z,2.00
2023-04-12T12:16:30.600Z,1.80
2023-04-12T12:19:05.531Z,2.27
2023-04-12T12:21:37.223Z,1.90
2023-04-12T12:24:14.535Z,2.17
2023-04-12T12:26:49.760Z,2.43
2023-04-12T12:29:23.469Z,1.70
2023-04-12T12:31:55.655Z,1.93
2023-04-12T12:34:33.757Z,1.60
2023-04-12T12:37:09.284Z,1.50
2023-04-12T12:40:00.715Z,1.83
2023-04-12T12:42:33.538Z,2.03
2023-04-12T12:45:05.852Z,1.60
2023-04-12T12:47:51.931Z,2.07
2023-04-12T12:50:26.100Z,1.60
2023-04-12T12:53:00.539Z,2.03
2023-04-12T12:55:32.670Z,1.70
2023-04-12T12:58:08.089Z,1.57
2023-04-12T13:00:41.284Z,1.50
2023-04-12T13:03:13.412Z,1.80
2023-04-12T13:05:45.421Z,1.90
2023-04-12T13:08:17.797Z,1.80
2023-04-12T13:10:50.038Z,1.83
2023-04-12T13:13:21.795Z,2.00
2023-04-12T13:15:53.552Z,1.97
2023-04-12T13:18:25.409Z,2.00
2023-04-12T13:20:57.202Z,1.60
2023-04-12T13:23:28.909Z,1.77
2023-04-12T13:26:00.680Z,1.67
2023-04-12T13:28:32.561Z,1.87
2023-04-12T13:31:04.428Z,1.80
2023-04-12T13:33:36.223Z,1.90
2023-04-12T13:36:08.235Z,1.63
2023-04-12T13:38:40.424Z,2.47
2023-04-12T13:41:12.135Z,1.80
2023-04-12T13:43:43.957Z,2.03
2023-04-12T13:46:15.717Z,1.73
2023-04-12T13:48:47.529Z,3.37
2023-04-12T13:51:19.307Z,1.77
2023-04-12T13:53:51.203Z,1.60
2023-04-12T13:56:22.946Z,1.63
2023-04-12T13:58:54.826Z,1.53
2023-04-12T14:01:27.028Z,1.93
2023-04-12T14:03:58.964Z,1.20
2023-04-12T14:06:31.649Z,1.63
2023-04-12T14:09:05.651Z,1.30
2023-04-12T14:11:47.429Z,2.00
2023-04-12T14:14:19.179Z,1.57
2023-04-12T14:16:53.507Z,1.80
2023-04-12T14:19:25.588Z,1.80
2023-04-12T14:21:57.401Z,1.47
2023-04-12T14:24:29.338Z,1.53
2023-04-12T14:27:02.282Z,1.60
2023-04-12T14:29:34.187Z,1.47
2023-04-12T14:32:06.306Z,1.53
2023-04-12T14:34:38.251Z,1.17
2023-04-12T14:37:10.173Z,1.00
2023-04-12T14:39:41.946Z,1.20
2023-04-12T14:42:13.733Z,1.77
2023-04-12T14:44:45.636Z,1.40
2023-04-12T14:47:17.733Z,1.23
2023-04-12T14:49:49.595Z,1.30
2023-04-12T14:52:21.257Z,1.60
2023-04-12T14:54:53.359Z,1.50
2023-04-12T14:57:25.764Z,1.73
2023-04-12T14:59:57.703Z,1.50
2023-04-12T15:02:29.622Z,1.77
2023-04-12T15:05:07.043Z,1.67
2023-04-12T15:07:38.973Z,1.60
2023-04-12T15:10:14.093Z,1.70
2023-04-12T15:12:46.128Z,1.50
2023-04-12T15:15:17.853Z,1.80
2023-04-12T15:17:49.935Z,1.53
2023-04-12T15:20:21.808Z,1.37
2023-04-12T15:22:53.557Z,1.10
2023-04-12T15:25:25.452Z,2.17
2023-04-12T15:27:57.423Z,0.93
2023-04-12T15:30:29.452Z,1.00
2023-04-12T15:33:01.298Z,0.90
2023-04-12T15:35:33.081Z,0.90
2023-04-12T15:38:04.894Z,0.97
2023-04-12T15:40:36.716Z,0.90
2023-04-12T15:43:08.672Z,0.90
2023-04-12T15:45:42.605Z,1.00
2023-04-12T15:48:14.446Z,0.95
2023-04-12T15:50:47.268Z,0.80
2023-04-12T15:53:21.378Z,0.80
2023-04-12T15:55:56.497Z,1.30
2023-04-12T15:58:28.264Z,0.90
2023-04-12T16:00:59.978Z,0.90
2023-04-12T16:03:32.464Z,0.97
2023-04-12T16:06:05.149Z,0.93
2023-04-12T16:08:36.900Z,1.40
2023-04-12T16:11:08.780Z,1.00
2023-04-12T16:13:42.524Z,1.37
2023-04-12T16:16:17.232Z,1.40
2023-04-12T16:18:49.357Z,1.77
2023-04-12T16:21:23.267Z,0.70
2023-04-12T16:23:55.475Z,1.30
2023-04-12T16:26:27.641Z,2.47
2023-04-12T16:29:01.220Z,1.20
2023-04-12T16:31:33.085Z,1.90
2023-04-12T16:34:04.956Z,1.20
2023-04-12T16:36:36.842Z,0.93
2023-04-12T16:39:08.705Z,1.70
2023-04-12T16:41:40.457Z,0.93
2023-04-12T16:44:17.834Z,0.90
2023-04-12T16:46:49.809Z,1.00
2023-04-12T16:49:22.361Z,1.33
2023-04-12T16:51:54.181Z,1.00
2023-04-12T16:54:26.229Z,1.30
2023-04-12T16:56:57.989Z,1.17
2023-04-12T16:59:32.302Z,1.10
2023-04-12T17:02:04.090Z,1.20
2023-04-12T17:04:36.215Z,1.70
2023-04-12T17:07:10.091Z,1.47
2023-04-12T17:09:41.967Z,1.43
2023-04-12T17:12:13.727Z,1.30
2023-04-12T17:14:45.650Z,1.20
2023-04-12T17:17:17.440Z,1.50
2023-04-12T17:19:49.270Z,1.00
2023-04-12T17:22:21.184Z,1.87
2023-04-12T17:24:53.316Z,1.43
2023-04-12T17:27:25.102Z,1.60
2023-04-12T17:29:58.610Z,1.73
2023-04-12T17:32:30.416Z,1.60
2023-04-12T17:35:03.517Z,2.00
2023-04-12T17:37:35.814Z,3.13
2023-04-12T17:40:10.885Z,2.00
2023-04-12T17:42:43.701Z,2.07
2023-04-12T17:45:16.055Z,1.50
2023-04-12T17:47:47.755Z,2.00
2023-04-12T17:50:19.548Z,1.53
2023-04-12T17:52:51.749Z,1.60
2023-04-12T17:55:24.092Z,1.60
2023-04-12T17:57:55.861Z,2.50
2023-04-12T18:00:27.825Z,2.30
2023-04-12T18:02:59.747Z,1.77
2023-04-12T18:05:31.670Z,2.70
2023-04-12T18:08:03.375Z,7.03
2023-04-12T18:10:35.309Z,4.63
2023-04-12T18:13:07.048Z,4.90
2023-04-12T18:15:38.830Z,4.40
2023-04-12T18:18:10.850Z,3.07
2023-04-12T18:20:42.747Z,2.13
2023-04-12T18:23:14.470Z,2.40
2023-04-12T18:25:46.304Z,3.03
2023-04-12T18:28:18.404Z,2.20
2023-04-12T18:30:50.259Z,2.70
2023-04-12T18:33:21.992Z,2.10
2023-04-12T18:35:55.283Z,2.63
2023-04-12T18:38:29.612Z,3.70
2023-04-12T18:41:01.757Z,4.13
2023-04-12T18:43:33.521Z,3.80
2023-04-12T18:46:05.319Z,3.40
2023-04-12T18:48:37.137Z,2.20
2023-04-12T18:51:08.906Z,3.80
2023-04-12T18:53:41.211Z,2.87
2023-04-12T18:56:14.384Z,2.47
2023-04-12T18:58:55.264Z,3.17
2023-04-12T19:01:28.383Z,2.47
2023-04-12T19:04:04.348Z,2.87
2023-04-12T19:06:36.280Z,2.53
2023-04-12T19:09:08.766Z,2.20
2023-04-12T19:11:40.592Z,2.70
2023-04-12T19:14:12.979Z,3.90
2023-04-12T19:16:44.691Z,2.10
2023-04-12T19:19:16.760Z,1.87
2023-04-12T19:21:48.555Z,1.90
2023-04-12T19:24:22.418Z,2.43
2023-04-12T19:26:54.500Z,1.40
2023-04-12T19:29:27.236Z,3.30
2023-04-12T19:32:00.697Z,2.53
2023-04-12T19:34:34.001Z,2.33
2023-04-12T19:37:07.136Z,2.30
2023-04-12T19:39:40.490Z,2.20
2023-04-12T19:42:14.858Z,2.50
2023-04-12T19:44:46.599Z,2.00
2023-04-12T19:47:18.864Z,1.63
2023-04-12T19:49:50.629Z,1.80
2023-04-12T19:52:23.256Z,1.50
2023-04-12T19:54:57.028Z,2.00
2023-04-12T19:57:28.898Z,2.30
2023-04-12T20:00:01.481Z,2.30
2023-04-12T20:02:33.411Z,1.63
2023-04-12T20:05:07.653Z,1.80
2023-04-12T20:07:39.618Z,1.63
2023-04-12T20:10:13.038Z,2.10
2023-04-12T20:12:45.544Z,1.87
2023-04-12T20:15:18.365Z,1.80
2023-04-12T20:17:51.839Z,1.80
2023-04-12T20:20:23.705Z,2.00
2023-04-12T20:22:58.763Z,2.20
2023-04-12T20:25:32.913Z,1.90
2023-04-12T20:28:04.700Z,1.73
2023-04-12T20:30:37.251Z,1.83
2023-04-12T20:33:09.197Z,1.43
2023-04-12T20:35:42.414Z,2.20
2023-04-12T20:38:15.094Z,2.13
2023-04-12T20:40:47.003Z,1.60
2023-04-12T20:43:18.800Z,1.87
2023-04-12T20:45:50.832Z,1.80
2023-04-12T20:48:23.255Z,1.70
2023-04-12T20:50:56.182Z,1.50
2023-04-12T20:53:28.056Z,1.60
2023-04-12T20:55:59.797Z,1.63
2023-04-12T20:58:34.855Z,1.53
2023-04-12T21:01:07.540Z,1.83
2023-04-12T21:03:40.749Z,1.53
2023-04-12T21:06:12.642Z,1.33
2023-04-12T21:08:44.516Z,0.80
2023-04-12T21:11:16.306Z,1.10
2023-04-12T21:13:48.034Z,0.90
2023-04-12T21:16:19.834Z,0.90
2023-04-12T21:18:53.223Z,0.80
2023-04-12T21:21:24.926Z,0.90
2023-04-12T21:23:56.908Z,0.70
2023-04-12T21:26:28.930Z,1.00
2023-04-12T21:29:01.233Z,1.07
2023-04-12T21:31:33.035Z,0.60
2023-04-12T21:34:04.773Z,1.20
2023-04-12T21:36:36.526Z,1.30
2023-04-12T21:39:08.456Z,0.70
2023-04-12T21:41:40.330Z,0.90
2023-04-12T21:44:12.526Z,0.80
2023-04-12T21:46:44.513Z,0.90
2023-04-12T21:49:16.454Z,1.10
2023-04-12T21:51:49.231Z,0.90
2023-04-12T21:54:21.118Z,0.93
2023-04-12T21:56:52.929Z,1.27
2023-04-12T21:59:26.405Z,1.20
2023-04-12T22:01:58.291Z,1.03
2023-04-12T22:04:30.153Z,1.00
2023-04-12T22:07:05.253Z,1.30
2023-04-12T22:09:37.114Z,1.33
2023-04-12T22:12:10.065Z,0.93
2023-04-12T22:14:49.714Z,1.20
2023-04-12T22:17:22.186Z,1.23
2023-04-12T22:19:56.523Z,1.00
2023-04-12T22:22:29.228Z,1.13
2023-04-12T22:25:01.593Z,1.03
2023-04-12T22:27:33.525Z,1.47
2023-04-12T22:30:06.892Z,1.20
2023-04-12T22:32:39.404Z,1.00
2023-04-12T22:35:11.261Z,1.40
2023-04-12T22:37:43.082Z,1.13
2023-04-12T22:40:14.895Z,1.13
2023-04-12T22:42:48.172Z,1.07
2023-04-12T22:45:19.906Z,1.20
2023-04-12T22:47:52.936Z,1.30
2023-04-12T22:50:24.957Z,1.00
2023-04-12T22:52:57.649Z,1.30
2023-04-12T22:55:29.465Z,1.53
2023-04-12T22:58:01.633Z,1.13
2023-04-12T23:00:37.040Z,1.30
2023-04-12T23:03:11.203Z,1.33
2023-04-12T23:05:44.655Z,1.20
2023-04-12T23:08:21.146Z,1.30
2023-04-12T23:10:53.254Z,1.33
2023-04-12T23:13:25.048Z,1.20
2023-04-12T23:15:57.742Z,1.53
2023-04-12T23:18:29.556Z,1.00
2023-04-12T23:21:01.895Z,1.10
2023-04-12T23:23:33.731Z,1.77
2023-04-12T23:26:05.797Z,1.50
2023-04-12T23:28:37.623Z,1.47
2023-04-12T23:31:09.862Z,0.90
2023-04-12T23:33:44.799Z,1.30
2023-04-12T23:36:16.640Z,1.30
2023-04-12T23:38:48.366Z,1.30
2023-04-12T23:41:20.203Z,1.20
2023-04-12T23:43:54.134Z,1.93
2023-04-12T23:46:26.625Z,1.80
2023-04-12T23:48:58.415Z,1.60
2023-04-12T23:51:30.303Z,1.60
2023-04-12T23:54:02.193Z,2.00
2023-04-12T23:56:33.957Z,2.03
2023-04-12T23:59:06.170Z,2.27
